createdAt,value
2023-04-15T00:00:56.168Z,99.62
2023-04-15T00:03:23.059Z,99.38
2023-04-15T00:05:49.728Z,99.29
2023-04-15T00:08:16.201Z,99.61
2023-04-15T00:10:44.203Z,98.41
2023-04-15T00:13:10.784Z,98.15
2023-04-15T00:15:37.628Z,98.56
2023-04-15T00:18:04.420Z,98.89
2023-04-15T00:20:31.386Z,97.85
2023-04-15T00:22:59.355Z,97.69
2023-04-15T00:25:26.434Z,98.01
2023-04-15T00:27:52.844Z,98.75
2023-04-15T00:30:19.652Z,98.66
2023-04-15T00:32:46.826Z,98.20
2023-04-15T00:35:13.770Z,98.07
2023-04-15T00:37:40.444Z,97.97
2023-04-15T00:40:12.878Z,98.01
2023-04-15T00:42:39.708Z,97.57
2023-04-15T00:45:07.139Z,96.90
2023-04-15T00:47:35.575Z,96.16
2023-04-15T00:50:02.151Z,95.58
2023-04-15T00:52:28.585Z,96.38
2023-04-15T00:54:55.742Z,96.26
2023-04-15T00:57:22.756Z,96.94
2023-04-15T00:59:51.245Z,97.86
2023-04-15T01:02:18.008Z,98.67
2023-04-15T01:04:44.562Z,97.84
2023-04-15T01:07:11.081Z,98.13
2023-04-15T01:09:37.717Z,98.30
2023-04-15T01:12:05.036Z,98.12
2023-04-15T01:14:31.963Z,97.83
2023-04-15T01:16:58.555Z,98.48
2023-04-15T01:19:25.403Z,98.71
2023-04-15T01:21:52.567Z,98.59
2023-04-15T01:24:19.403Z,98.95
2023-04-15T01:26:46.574Z,99.48
2023-04-15T01:29:13.260Z,99.34
2023-04-15T01:31:39.815Z,99.80
2023-04-15T01:34:06.339Z,99.67
2023-04-15T01:36:33.208Z,99.90
2023-04-15T01:39:00.019Z,99.88
2023-04-15T01:41:27.743Z,100.00
2023-04-15T01:43:55.054Z,100.00
2023-04-15T01:46:21.677Z,100.00
2023-04-15T01:48:48.225Z,100.00
2023-04-15T01:51:14.854Z,100.00
2023-04-15T01:53:41.371Z,100.00
2023-04-15T01:56:08.536Z,100.00
2023-04-15T01:58:35.165Z,100.00
2023-04-15T02:01:02.926Z,100.00
2023-04-15T02:03:31.539Z,100.00
2023-04-15T02:05:58.527Z,100.00
2023-04-15T02:08:25.089Z,100.00
2023-04-15T02:10:51.724Z,100.00
2023-04-15T02:13:18.239Z,99.56
2023-04-15T02:15:48.880Z,100.00
2023-04-15T02:18:16.876Z,99.47
2023-04-15T02:20:47.070Z,98.90
2023-04-15T02:23:13.856Z,98.37
2023-04-15T02:25:43.590Z,98.76
2023-04-15T02:28:20.456Z,98.96
2023-04-15T02:30:50.901Z,98.81
2023-04-15T02:33:17.579Z,98.60
2023-04-15T02:35:45.298Z,98.03
2023-04-15T02:38:12.101Z,98.36
2023-04-15T02:40:38.630Z,98.32
2023-04-15T02:43:07.265Z,98.49
2023-04-15T02:45:34.440Z,98.29
2023-04-15T02:48:06.138Z,98.60
2023-04-15T02:50:32.924Z,98.17
2023-04-15T02:53:01.214Z,98.61
2023-04-15T02:55:28.745Z,98.28
2023-04-15T02:57:55.598Z,99.08
2023-04-15T03:00:22.340Z,98.97
2023-04-15T03:02:52.376Z,99.93
2023-04-15T03:05:19.050Z,99.20
2023-04-15T03:07:50.971Z,98.97
2023-04-15T03:10:18.098Z,98.62
2023-04-15T03:12:46.125Z,98.99
2023-04-15T03:15:17.287Z,98.80
2023-04-15T03:17:49.242Z,98.57
2023-04-15T03:20:15.796Z,99.02
2023-04-15T03:22:42.484Z,98.55
2023-04-15T03:25:09.514Z,98.33
2023-04-15T03:27:38.312Z,97.68
2023-04-15T03:30:06.509Z,98.97
2023-04-15T03:32:34.899Z,99.31
2023-04-15T03:35:01.414Z,98.73
2023-04-15T03:37:27.849Z,99.58
2023-04-15T03:39:54.338Z,100.00
2023-04-15T03:42:20.882Z,100.00
2023-04-15T03:44:47.350Z,100.00
2023-04-15T03:47:13.816Z,100.00
2023-04-15T03:49:40.260Z,100.00
2023-04-15T03:52:06.734Z,100.00
2023-04-15T03:54:33.144Z,100.00
2023-04-15T03:56:59.535Z,100.00
2023-04-15T03:59:26.254Z,100.00
2023-04-15T04:01:52.812Z,100.00
2023-04-15T04:04:19.387Z,100.00
2023-04-15T04:06:46.080Z,100.00
2023-04-15T04:09:12.466Z,99.95
2023-04-15T04:11:38.985Z,100.00
2023-04-15T04:14:05.618Z,100.00
2023-04-15T04:16:32.133Z,100.00
2023-04-15T04:18:58.604Z,99.70
2023-04-15T04:21:25.235Z,99.51
2023-04-15T04:23:51.694Z,99.00
2023-04-15T04:26:18.185Z,100.00
2023-04-15T04:28:44.627Z,100.00
2023-04-15T04:31:11.783Z,100.00
2023-04-15T04:33:38.305Z,100.00
2023-04-15T04:36:05.553Z,100.00
2023-04-15T04:38:31.983Z,100.00
2023-04-15T04:40:58.445Z,100.00
2023-04-15T04:43:24.967Z,100.00
2023-04-15T04:45:51.486Z,100.00
2023-04-15T04:48:18.540Z,100.00
2023-04-15T04:50:45.438Z,100.00
2023-04-15T04:53:12.216Z,100.00
2023-04-15T04:55:38.675Z,100.00
2023-04-15T04:58:05.124Z,100.00
2023-04-15T05:00:31.642Z,100.00
2023-04-15T05:02:58.733Z,100.00
2023-04-15T05:05:25.422Z,100.00
2023-04-15T05:07:51.878Z,100.00
2023-04-15T05:10:18.448Z,100.00
2023-04-15T05:12:44.953Z,100.00
2023-04-15T05:15:11.599Z,100.00
2023-04-15T05:17:38.126Z,100.00
2023-04-15T05:20:04.979Z,100.00
2023-04-15T05:22:31.461Z,99.74
2023-04-15T05:24:57.931Z,99.70
2023-04-15T05:27:24.926Z,100.00
2023-04-15T05:29:51.590Z,100.00
2023-04-15T05:32:18.131Z,100.00
2023-04-15T05:34:44.935Z,99.93
2023-04-15T05:37:11.421Z,100.00
2023-04-15T05:39:37.845Z,100.00
2023-04-15T05:42:05.877Z,99.43
2023-04-15T05:44:32.834Z,98.06
2023-04-15T05:46:59.569Z,96.45
2023-04-15T05:49:26.066Z,95.34
2023-04-15T05:51:52.636Z,95.38
2023-04-15T05:54:20.288Z,95.04
2023-04-15T05:56:46.921Z,95.74
2023-04-15T05:59:13.333Z,96.48
2023-04-15T06:01:40.209Z,96.48
2023-04-15T06:04:07.099Z,95.48
2023-04-15T06:06:33.634Z,94.77
2023-04-15T06:09:00.296Z,94.16
2023-04-15T06:11:27.333Z,94.34
2023-04-15T06:13:53.755Z,94.21
2023-04-15T06:16:20.186Z,94.31
2023-04-15T06:18:46.588Z,94.01
2023-04-15T06:21:13.137Z,94.44
2023-04-15T06:23:41.109Z,93.73
2023-04-15T06:26:07.855Z,93.71
2023-04-15T06:28:34.569Z,94.46
2023-04-15T06:31:01.925Z,92.51
2023-04-15T06:33:28.613Z,93.04
2023-04-15T06:35:55.096Z,93.51
2023-04-15T06:38:21.654Z,91.75
2023-04-15T06:40:48.244Z,90.99
2023-04-15T06:43:15.196Z,89.70
2023-04-15T06:45:41.653Z,89.21
2023-04-15T06:48:08.146Z,89.66
2023-04-15T06:50:35.614Z,89.69
2023-04-15T06:53:02.054Z,89.83
2023-04-15T06:55:28.493Z,89.06
2023-04-15T06:57:54.900Z,88.47
2023-04-15T07:00:21.413Z,89.04
2023-04-15T07:02:48.101Z,88.61
2023-04-15T07:05:14.630Z,87.96
2023-04-15T07:07:41.210Z,85.43
2023-04-15T07:10:08.282Z,84.62
2023-04-15T07:12:35.865Z,84.88
2023-04-15T07:15:02.367Z,83.60
2023-04-15T07:17:28.875Z,81.92
2023-04-15T07:19:55.365Z,80.98
2023-04-15T07:22:21.888Z,81.39
2023-04-15T07:24:48.354Z,79.81
2023-04-15T07:27:14.818Z,78.73
2023-04-15T07:29:41.376Z,78.18
2023-04-15T07:32:07.943Z,77.14
2023-04-15T07:34:34.389Z,76.14
2023-04-15T07:37:01.409Z,74.45
2023-04-15T07:39:29.114Z,73.63
2023-04-15T07:41:56.226Z,72.67
2023-04-15T07:44:22.657Z,71.28
2023-04-15T07:46:49.083Z,69.07
2023-04-15T07:49:15.697Z,68.33
2023-04-15T07:51:42.132Z,66.99
2023-04-15T07:54:08.866Z,64.90
2023-04-15T07:56:35.404Z,65.90
2023-04-15T07:59:06.057Z,64.70
2023-04-15T08:01:33.048Z,62.74
2023-04-15T08:03:59.881Z,59.21
2023-04-15T08:06:27.337Z,59.64
2023-04-15T08:08:55.235Z,57.52
2023-04-15T08:11:21.778Z,58.33
2023-04-15T08:13:48.201Z,57.91
2023-04-15T08:16:19.270Z,57.64
2023-04-15T08:18:47.614Z,56.92
2023-04-15T08:21:14.205Z,54.67
2023-04-15T08:23:40.987Z,53.32
2023-04-15T08:26:08.634Z,53.32
2023-04-15T08:28:35.660Z,52.94
2023-04-15T08:31:02.262Z,54.72
2023-04-15T08:33:28.954Z,54.50
2023-04-15T08:35:55.526Z,54.78
2023-04-15T08:38:22.007Z,54.18
2023-04-15T08:40:48.505Z,54.40
2023-04-15T08:43:28.308Z,51.84
2023-04-15T08:45:55.781Z,54.75
2023-04-15T08:48:24.448Z,51.63
2023-04-15T08:50:51.221Z,50.17
2023-04-15T08:53:18.148Z,51.92
2023-04-15T08:55:46.552Z,52.40
2023-04-15T08:58:16.238Z,51.53
2023-04-15T09:00:43.063Z,49.92
2023-04-15T09:03:09.783Z,49.93
2023-04-15T09:05:37.149Z,50.16
2023-04-15T09:08:05.262Z,49.62
2023-04-15T09:10:33.677Z,49.57
2023-04-15T09:13:01.984Z,50.15
2023-04-15T09:15:29.804Z,51.06
2023-04-15T09:17:57.171Z,51.70
2023-04-15T09:20:23.865Z,48.97
2023-04-15T09:22:51.907Z,48.79
2023-04-15T09:25:28.158Z,48.68
2023-04-15T09:27:57.435Z,48.13
2023-04-15T09:30:24.096Z,47.84
2023-04-15T09:32:54.658Z,48.58
2023-04-15T09:35:22.541Z,49.66
2023-04-15T09:37:50.086Z,48.46
2023-04-15T09:40:40.994Z,48.63
2023-04-15T09:43:09.692Z,48.86
2023-04-15T09:45:37.091Z,49.66
2023-04-15T09:48:15.583Z,48.77
2023-04-15T09:50:44.229Z,50.56
2023-04-15T09:53:13.833Z,47.83
2023-04-15T09:55:43.739Z,48.64
2023-04-15T09:58:18.006Z,49.73
2023-04-15T10:00:46.923Z,48.84
2023-04-15T10:03:19.019Z,49.89
2023-04-15T10:05:47.739Z,49.57
2023-04-15T10:08:16.370Z,50.42
2023-04-15T10:10:43.081Z,49.16
2023-04-15T10:13:10.094Z,49.42
2023-04-15T10:15:36.764Z,50.27
2023-04-15T10:18:05.454Z,47.88
2023-04-15T10:20:31.979Z,47.75
2023-04-15T10:22:58.777Z,44.02
2023-04-15T10:25:26.915Z,42.75
2023-04-15T10:27:53.677Z,41.78
2023-04-15T10:30:20.629Z,43.21
2023-04-15T10:32:47.560Z,43.22
2023-04-15T10:35:14.340Z,43.23
2023-04-15T10:37:40.852Z,44.03
2023-04-15T10:40:23.753Z,44.60
2023-04-15T10:42:50.320Z,44.98
2023-04-15T10:45:18.901Z,43.47
2023-04-15T10:47:45.572Z,42.61
2023-04-15T10:50:12.602Z,42.82
2023-04-15T10:52:42.568Z,43.83
2023-04-15T10:55:13.287Z,43.35
2023-04-15T10:57:41.385Z,41.42
2023-04-15T11:00:13.616Z,43.05
2023-04-15T11:02:42.215Z,44.10
2023-04-15T11:05:09.708Z,44.77
2023-04-15T11:07:49.497Z,44.71
2023-04-15T11:10:36.045Z,46.17
2023-04-15T11:13:17.043Z,46.42
2023-04-15T11:15:45.606Z,47.34
2023-04-15T11:18:19.028Z,46.62
2023-04-15T11:20:50.950Z,46.97
2023-04-15T11:23:28.902Z,46.62
2023-04-15T11:25:57.699Z,47.41
2023-04-15T11:28:28.904Z,48.84
2023-04-15T11:30:55.994Z,48.15
2023-04-15T11:33:23.873Z,48.55
2023-04-15T11:35:52.829Z,49.06
2023-04-15T11:38:19.441Z,48.44
2023-04-15T11:40:47.178Z,48.02
2023-04-15T11:43:20.855Z,48.41
2023-04-15T11:45:58.949Z,49.61
2023-04-15T11:48:33.742Z,49.02
2023-04-15T11:51:02.997Z,49.33
2023-04-15T11:53:41.462Z,48.50
2023-04-15T11:56:10.201Z,48.48
2023-04-15T11:58:38.202Z,47.49
2023-04-15T12:01:06.525Z,46.25
2023-04-15T12:03:45.587Z,46.03
2023-04-15T12:06:19.553Z,45.54
2023-04-15T12:08:55.419Z,44.69
2023-04-15T12:11:29.593Z,45.20
2023-04-15T12:13:59.674Z,43.24
2023-04-15T12:16:27.925Z,42.98
2023-04-15T12:18:59.275Z,43.94
2023-04-15T12:21:28.125Z,44.54
2023-04-15T12:24:02.132Z,41.72
2023-04-15T12:26:33.518Z,41.69
2023-04-15T12:29:05.465Z,44.28
2023-04-15T12:31:32.153Z,42.95
2023-04-15T12:34:00.692Z,41.27
2023-04-15T12:36:28.469Z,41.57
2023-04-15T12:38:54.923Z,39.51
2023-04-15T12:41:22.188Z,40.24
2023-04-15T12:43:48.582Z,38.28
2023-04-15T12:46:15.736Z,37.88
2023-04-15T12:48:42.443Z,38.26
2023-04-15T12:51:08.928Z,42.32
2023-04-15T12:53:35.624Z,48.52
2023-04-15T12:56:02.260Z,49.50
2023-04-15T12:58:28.847Z,49.03
2023-04-15T13:00:55.352Z,50.25
2023-04-15T13:03:21.943Z,49.63
2023-04-15T13:05:48.529Z,46.88
2023-04-15T13:08:15.607Z,43.94
2023-04-15T13:10:43.332Z,41.14
2023-04-15T13:13:09.993Z,40.74
2023-04-15T13:15:36.480Z,41.92
2023-04-15T13:18:03.036Z,43.45
2023-04-15T13:20:29.509Z,41.92
2023-04-15T13:22:56.126Z,41.73
2023-04-15T13:25:22.752Z,40.55
2023-04-15T13:27:50.029Z,37.68
2023-04-15T13:30:16.530Z,38.54
2023-04-15T13:32:43.064Z,39.20
2023-04-15T13:35:09.585Z,40.29
2023-04-15T13:37:36.417Z,39.95
2023-04-15T13:40:03.399Z,39.85
2023-04-15T13:42:29.858Z,38.73
2023-04-15T13:44:56.370Z,37.83
2023-04-15T13:47:22.880Z,37.18
2023-04-15T13:49:49.329Z,37.08
2023-04-15T13:52:15.947Z,38.42
2023-04-15T13:54:42.400Z,38.13
2023-04-15T13:57:09.187Z,37.99
2023-04-15T13:59:35.723Z,39.33
2023-04-15T14:02:02.581Z,39.54
2023-04-15T14:04:29.177Z,40.00
2023-04-15T14:06:56.297Z,39.78
2023-04-15T14:09:26.185Z,40.83
2023-04-15T14:11:53.097Z,41.17
2023-04-15T14:14:19.561Z,41.42
2023-04-15T14:16:46.130Z,42.00
2023-04-15T14:19:12.750Z,42.50
2023-04-15T14:21:39.364Z,43.22
2023-04-15T14:24:06.203Z,43.44
2023-04-15T14:26:32.752Z,43.88
2023-04-15T14:28:59.268Z,44.85
2023-04-15T14:31:25.979Z,44.71
2023-04-15T14:33:52.476Z,45.39
2023-04-15T14:36:19.015Z,45.51
2023-04-15T14:38:46.491Z,46.18
2023-04-15T14:41:16.024Z,46.12
2023-04-15T14:43:42.549Z,45.85
2023-04-15T14:46:09.197Z,46.55
2023-04-15T14:48:35.842Z,46.99
2023-04-15T14:51:02.522Z,48.37
2023-04-15T14:53:28.988Z,47.25
2023-04-15T14:55:55.406Z,47.99
2023-04-15T14:58:22.284Z,49.18
2023-04-15T15:00:48.774Z,48.84
2023-04-15T15:03:15.757Z,48.60
2023-04-15T15:05:44.780Z,48.52
2023-04-15T15:08:11.971Z,48.59
2023-04-15T15:10:48.692Z,50.78
2023-04-15T15:13:17.427Z,51.29
2023-04-15T15:15:43.974Z,51.27
2023-04-15T15:18:10.709Z,51.11
2023-04-15T15:20:37.293Z,52.21
2023-04-15T15:23:03.807Z,50.63
2023-04-15T15:25:30.309Z,50.62
2023-04-15T15:27:57.671Z,50.78
2023-04-15T15:30:24.241Z,51.32
2023-04-15T15:32:51.314Z,51.30
2023-04-15T15:35:17.877Z,51.07
2023-04-15T15:37:45.725Z,50.65
2023-04-15T15:40:12.571Z,50.86
2023-04-15T15:42:39.034Z,50.62
2023-04-15T15:45:05.916Z,50.86
2023-04-15T15:47:32.509Z,51.07
2023-04-15T15:50:00.296Z,50.63
2023-04-15T15:52:27.067Z,50.83
2023-04-15T15:54:53.540Z,51.06
2023-04-15T15:57:19.951Z,49.92
2023-04-15T15:59:46.401Z,49.95
2023-04-15T16:02:14.169Z,51.07
2023-04-15T16:04:41.625Z,52.49
2023-04-15T16:07:08.276Z,52.57
2023-04-15T16:09:34.912Z,53.10
2023-04-15T16:12:01.992Z,53.71
2023-04-15T16:14:28.473Z,55.56
2023-04-15T16:16:55.085Z,57.92
2023-04-15T16:19:21.772Z,61.94
2023-04-15T16:21:48.345Z,63.32
2023-04-15T16:24:14.867Z,63.39
2023-04-15T16:26:41.798Z,65.70
2023-04-15T16:29:08.306Z,64.57
2023-04-15T16:31:35.903Z,66.71
2023-04-15T16:34:02.623Z,67.34
2023-04-15T16:36:29.111Z,69.35
2023-04-15T16:38:55.888Z,70.52
2023-04-15T16:41:22.526Z,75.60
2023-04-15T16:43:48.986Z,78.94
2023-04-15T16:46:15.587Z,84.86
2023-04-15T16:48:42.285Z,88.51
2023-04-15T16:51:08.744Z,88.87
2023-04-15T16:53:35.390Z,94.04
2023-04-15T16:56:01.786Z,94.09
2023-04-15T16:58:28.787Z,95.65
2023-04-15T17:00:55.401Z,97.45
2023-04-15T17:03:22.027Z,97.61
2023-04-15T17:05:48.627Z,99.15
2023-04-15T17:08:15.093Z,99.19
2023-04-15T17:10:41.579Z,100.00
2023-04-15T17:13:08.183Z,99.37
2023-04-15T17:15:34.834Z,98.55
2023-04-15T17:18:02.037Z,99.04
2023-04-15T17:20:29.848Z,100.00
2023-04-15T17:22:56.421Z,100.00
2023-04-15T17:25:23.145Z,100.00
2023-04-15T17:27:49.559Z,100.00
2023-04-15T17:30:16.173Z,100.00
2023-04-15T17:32:42.648Z,100.00
2023-04-15T17:35:09.748Z,100.00
2023-04-15T17:37:36.253Z,100.00
2023-04-15T17:40:03.142Z,100.00
2023-04-15T17:42:29.704Z,100.00
2023-04-15T17:44:56.254Z,100.00
2023-04-15T17:47:22.853Z,100.00
2023-04-15T17:49:49.287Z,100.00
2023-04-15T17:52:15.841Z,100.00
2023-04-15T17:54:42.350Z,100.00
2023-04-15T17:57:09.544Z,100.00
2023-04-15T17:59:36.078Z,100.00
2023-04-15T18:02:02.591Z,100.00
2023-04-15T18:04:29.235Z,100.00
2023-04-15T18:06:55.773Z,100.00
2023-04-15T18:09:22.221Z,100.00
2023-04-15T18:11:49.100Z,100.00
2023-04-15T18:14:26.693Z,100.00
2023-04-15T18:16:57.528Z,100.00
2023-04-15T18:19:25.693Z,100.00
2023-04-15T18:21:52.207Z,100.00
2023-04-15T18:24:18.706Z,100.00
2023-04-15T18:26:47.486Z,100.00
2023-04-15T18:29:15.332Z,100.00
2023-04-15T18:31:42.062Z,100.00
2023-04-15T18:34:08.582Z,100.00
2023-04-15T18:36:35.042Z,100.00
2023-04-15T18:39:01.552Z,100.00
2023-04-15T18:41:28.042Z,100.00
2023-04-15T18:43:55.996Z,100.00
2023-04-15T18:46:22.521Z,100.00
2023-04-15T18:48:48.963Z,100.00
2023-04-15T18:51:15.899Z,100.00
2023-04-15T18:53:42.340Z,100.00
2023-04-15T18:56:08.811Z,100.00
2023-04-15T18:59:08.336Z,100.00
2023-04-15T19:01:21.883Z,100.00
2023-04-15T19:03:48.465Z,100.00
2023-04-15T19:06:14.892Z,100.00
2023-04-15T19:08:41.409Z,100.00
2023-04-15T19:11:08.571Z,100.00
2023-04-15T19:13:34.996Z,100.00
2023-04-15T19:16:01.473Z,100.00
2023-04-15T19:18:27.948Z,100.00
2023-04-15T19:20:55.854Z,100.00
2023-04-15T19:23:23.481Z,100.00
2023-04-15T19:25:50.081Z,100.00
2023-04-15T19:28:16.527Z,100.00
2023-04-15T19:30:43.074Z,100.00
2023-04-15T19:33:09.577Z,100.00
2023-04-15T19:35:36.242Z,100.00
2023-04-15T19:38:03.146Z,100.00
2023-04-15T19:40:29.553Z,100.00
2023-04-15T19:42:55.988Z,100.00
2023-04-15T19:45:22.490Z,100.00
2023-04-15T19:47:49.192Z,100.00
2023-04-15T19:50:16.846Z,100.00
2023-04-15T19:52:43.331Z,100.00
2023-04-15T19:55:09.933Z,100.00
2023-04-15T19:57:36.607Z,100.00
2023-04-15T20:00:03.635Z,100.00
2023-04-15T20:02:32.434Z,100.00
2023-04-15T20:04:58.937Z,100.00
2023-04-15T20:07:25.757Z,100.00
2023-04-15T20:09:52.465Z,100.00
2023-04-15T20:12:51.476Z,100.00
2023-04-15T20:15:07.349Z,100.00
2023-04-15T20:17:34.080Z,100.00
2023-04-15T20:20:00.614Z,100.00
2023-04-15T20:22:27.075Z,100.00
2023-04-15T20:24:53.510Z,100.00
2023-04-15T20:27:20.602Z,100.00
2023-04-15T20:29:47.064Z,100.00
2023-04-15T20:32:13.496Z,100.00
2023-04-15T20:34:42.637Z,100.00
2023-04-15T20:37:11.315Z,100.00
2023-04-15T20:39:38.659Z,100.00
2023-04-15T20:42:05.085Z,100.00
2023-04-15T20:44:31.562Z,100.00
2023-04-15T20:46:58.087Z,100.00
2023-04-15T20:49:24.547Z,100.00
2023-04-15T20:51:51.204Z,100.00
2023-04-15T20:54:19.412Z,100.00
2023-04-15T20:56:45.802Z,100.00
2023-04-15T20:59:12.287Z,100.00
2023-04-15T21:01:40.169Z,100.00
2023-04-15T21:04:06.647Z,100.00
2023-04-15T21:06:34.251Z,100.00
2023-04-15T21:09:00.996Z,100.00
2023-04-15T21:11:46.378Z,100.00
2023-04-15T21:14:14.933Z,100.00
2023-04-15T21:16:41.890Z,100.00
2023-04-15T21:19:09.705Z,100.00
2023-04-15T21:21:36.355Z,100.00
2023-04-15T21:24:02.826Z,100.00
2023-04-15T21:26:29.266Z,100.00
2023-04-15T21:28:56.222Z,100.00
2023-04-15T21:31:22.981Z,100.00
2023-04-15T21:33:49.720Z,100.00
2023-04-15T21:36:16.219Z,100.00
2023-04-15T21:38:42.664Z,100.00
2023-04-15T21:41:09.738Z,100.00
2023-04-15T21:43:39.149Z,100.00
2023-04-15T21:46:22.275Z,100.00
2023-04-15T21:48:53.369Z,100.00
2023-04-15T21:51:20.503Z,100.00
2023-04-15T21:53:46.986Z,100.00
2023-04-15T21:56:13.410Z,100.00
2023-04-15T21:58:39.874Z,100.00
2023-04-15T22:01:06.492Z,100.00
2023-04-15T22:03:34.657Z,100.00
2023-04-15T22:06:02.811Z,100.00
2023-04-15T22:08:30.138Z,100.00
2023-04-15T22:10:57.413Z,100.00
2023-04-15T22:13:23.892Z,100.00
2023-04-15T22:15:50.279Z,100.00
2023-04-15T22:18:16.967Z,100.00
2023-04-15T22:20:43.430Z,100.00
2023-04-15T22:23:09.952Z,100.00
2023-04-15T22:25:37.318Z,100.00
2023-04-15T22:28:07.260Z,100.00
2023-04-15T22:30:40.013Z,100.00
2023-04-15T22:33:07.801Z,100.00
2023-04-15T22:35:36.067Z,100.00
2023-04-15T22:38:03.614Z,100.00
2023-04-15T22:40:30.414Z,100.00
2023-04-15T22:42:56.931Z,100.00
2023-04-15T22:45:23.527Z,100.00
2023-04-15T22:47:49.969Z,100.00
2023-04-15T22:50:16.493Z,100.00
2023-04-15T22:52:46.044Z,100.00
2023-04-15T22:55:12.651Z,100.00
2023-04-15T22:57:39.095Z,100.00
2023-04-15T23:00:06.374Z,100.00
2023-04-15T23:02:33.391Z,100.00
2023-04-15T23:05:00.167Z,100.00
2023-04-15T23:07:29.551Z,100.00
2023-04-15T23:09:56.725Z,100.00
2023-04-15T23:12:23.206Z,100.00
2023-04-15T23:14:49.661Z,100.00
2023-04-15T23:17:16.065Z,100.00
2023-04-15T23:19:42.565Z,100.00
2023-04-15T23:22:10.568Z,100.00
2023-04-15T23:24:37.148Z,100.00
2023-04-15T23:27:03.721Z,100.00
2023-04-15T23:29:30.315Z,100.00
2023-04-15T23:31:57.312Z,100.00
2023-04-15T23:34:23.819Z,100.00
2023-04-15T23:36:50.232Z,100.00
2023-04-15T23:39:16.875Z,100.00
2023-04-15T23:41:43.295Z,100.00
2023-04-15T23:44:09.956Z,100.00
2023-04-15T23:46:36.436Z,100.00
2023-04-15T23:49:02.960Z,100.00
2023-04-15T23:51:29.447Z,100.00
2023-04-15T23:53:56.148Z,100.00
2023-04-15T23:56:22.595Z,100.00
2023-04-15T23:58:49.083Z,100.00
